sensor_id;sensor_type;location;lat;lon;timestamp;temperature;humidity
69533;DHT22;56729;52.036;5.332;2022-08-21T00:00:22;14.70;92.40
69533;DHT22;56729;52.036;5.332;2022-08-21T00:01:27;14.70;92.40
69533;DHT22;56729;52.036;5.332;2022-08-21T00:02:30;14.70;92.40
69533;DHT22;56729;52.036;5.332;2022-08-21T00:03:32;14.60;92.50
69533;DHT22;56729;52.036;5.332;2022-08-21T00:04:34;14.60;92.50
69533;DHT22;56729;52.036;5.332;2022-08-21T00:05:40;14.60;92.50
69533;DHT22;56729;52.036;5.332;2022-08-21T00:06:42;14.60;92.50
69533;DHT22;56729;52.036;5.332;2022-08-21T00:07:44;14.60;92.60
69533;DHT22;56729;52.036;5.332;2022-08-21T00:08:46;14.60;92.80
69533;DHT22;56729;52.036;5.332;2022-08-21T00:09:48;14.60;92.70
69533;DHT22;56729;52.036;5.332;2022-08-21T00:10:50;14.60;92.70
69533;DHT22;56729;52.036;5.332;2022-08-21T00:11:52;14.60;92.60
69533;DHT22;56729;52.036;5.332;2022-08-21T00:12:55;14.60;92.60
69533;DHT22;56729;52.036;5.332;2022-08-21T00:13:57;14.60;92.60
69533;DHT22;56729;52.036;5.332;2022-08-21T00:14:59;14.50;92.60
69533;DHT22;56729;52.036;5.332;2022-08-21T00:16:02;14.50;92.60
69533;DHT22;56729;52.036;5.332;2022-08-21T00:17:04;14.50;92.60
69533;DHT22;56729;52.036;5.332;2022-08-21T00:18:10;14.50;92.60
69533;DHT22;56729;52.036;5.332;2022-08-21T00:19:12;14.50;92.70
69533;DHT22;56729;52.036;5.332;2022-08-21T00:20:16;14.50;92.70
69533;DHT22;56729;52.036;5.332;2022-08-21T00:21:18;14.50;92.70
69533;DHT22;56729;52.036;5.332;2022-08-21T00:22:20;14.50;92.70
69533;DHT22;56729;52.036;5.332;2022-08-21T00:23:22;14.50;92.60
69533;DHT22;56729;52.036;5.332;2022-08-21T00:24:25;14.50;92.70
69533;DHT22;56729;52.036;5.332;2022-08-21T00:25:27;14.50;92.60
69533;DHT22;56729;52.036;5.332;2022-08-21T00:26:29;14.50;92.50
69533;DHT22;56729;52.036;5.332;2022-08-21T00:27:32;14.50;92.60
69533;DHT22;56729;52.036;5.332;2022-08-21T00:28:34;14.50;92.70
69533;DHT22;56729;52.036;5.332;2022-08-21T00:29:36;14.50;92.80
69533;DHT22;56729;52.036;5.332;2022-08-21T00:30:39;14.50;92.70
69533;DHT22;56729;52.036;5.332;2022-08-21T00:31:42;14.50;92.70
69533;DHT22;56729;52.036;5.332;2022-08-21T00:32:44;14.50;92.60
69533;DHT22;56729;52.036;5.332;2022-08-21T00:33:46;14.50;92.60
69533;DHT22;56729;52.036;5.332;2022-08-21T00:34:48;14.50;92.60
69533;DHT22;56729;52.036;5.332;2022-08-21T00:35:50;14.40;92.60
69533;DHT22;56729;52.036;5.332;2022-08-21T00:36:52;14.50;92.70
69533;DHT22;56729;52.036;5.332;2022-08-21T00:37:54;14.40;92.70
69533;DHT22;56729;52.036;5.332;2022-08-21T00:38:56;14.40;92.70
69533;DHT22;56729;52.036;5.332;2022-08-21T00:39:59;14.40;92.70
69533;DHT22;56729;52.036;5.332;2022-08-21T00:41:03;14.40;92.70
69533;DHT22;56729;52.036;5.332;2022-08-21T00:42:28;14.40;92.70
69533;DHT22;56729;52.036;5.332;2022-08-21T00:43:33;14.30;92.70
69533;DHT22;56729;52.036;5.332;2022-08-21T00:44:36;14.30;92.70
69533;DHT22;56729;52.036;5.332;2022-08-21T00:45:38;14.30;92.80
69533;DHT22;56729;52.036;5.332;2022-08-21T00:46:42;14.30;92.80
69533;DHT22;56729;52.036;5.332;2022-08-21T00:47:44;14.30;92.80
69533;DHT22;56729;52.036;5.332;2022-08-21T00:48:46;14.30;92.80
69533;DHT22;56729;52.036;5.332;2022-08-21T00:49:48;14.30;92.80
69533;DHT22;56729;52.036;5.332;2022-08-21T00:52:10;14.30;93.00
69533;DHT22;56729;52.036;5.332;2022-08-21T00:53:13;14.30;93.00
69533;DHT22;56729;52.036;5.332;2022-08-21T00:54:18;14.30;93.10
69533;DHT22;56729;52.036;5.332;2022-08-21T00:55:22;14.30;93.10
69533;DHT22;56729;52.036;5.332;2022-08-21T00:56:27;14.20;93.00
69533;DHT22;56729;52.036;5.332;2022-08-21T00:57:36;14.20;93.10
69533;DHT22;56729;52.036;5.332;2022-08-21T00:58:41;14.20;93.00
69533;DHT22;56729;52.036;5.332;2022-08-21T00:59:47;14.20;93.00
69533;DHT22;56729;52.036;5.332;2022-08-21T01:00:51;14.20;93.00
69533;DHT22;56729;52.036;5.332;2022-08-21T01:01:53;14.20;93.10
69533;DHT22;56729;52.036;5.332;2022-08-21T01:03:00;14.20;93.20
69533;DHT22;56729;52.036;5.332;2022-08-21T01:04:07;14.20;93.20
69533;DHT22;56729;52.036;5.332;2022-08-21T01:05:10;14.20;93.30
69533;DHT22;56729;52.036;5.332;2022-08-21T01:06:12;14.20;93.70
69533;DHT22;56729;52.036;5.332;2022-08-21T01:07:14;14.20;93.30
69533;DHT22;56729;52.036;5.332;2022-08-21T01:08:18;14.20;93.30
69533;DHT22;56729;52.036;5.332;2022-08-21T01:09:20;14.20;93.30
69533;DHT22;56729;52.036;5.332;2022-08-21T01:10:23;14.20;93.30
69533;DHT22;56729;52.036;5.332;2022-08-21T01:11:25;14.20;93.30
69533;DHT22;56729;52.036;5.332;2022-08-21T01:12:27;14.20;93.20
69533;DHT22;56729;52.036;5.332;2022-08-21T01:13:32;14.20;93.20
69533;DHT22;56729;52.036;5.332;2022-08-21T01:14:35;14.20;93.20
69533;DHT22;56729;52.036;5.332;2022-08-21T01:15:40;14.20;93.30
69533;DHT22;56729;52.036;5.332;2022-08-21T01:16:48;14.20;93.30
69533;DHT22;56729;52.036;5.332;2022-08-21T01:17:51;14.20;93.30
69533;DHT22;56729;52.036;5.332;2022-08-21T01:18:53;14.20;93.30
69533;DHT22;56729;52.036;5.332;2022-08-21T01:20:00;14.20;93.30
69533;DHT22;56729;52.036;5.332;2022-08-21T01:21:24;14.20;93.30
69533;DHT22;56729;52.036;5.332;2022-08-21T01:22:29;14.20;93.20
69533;DHT22;56729;52.036;5.332;2022-08-21T01:23:31;14.10;93.30
69533;DHT22;56729;52.036;5.332;2022-08-21T01:24:33;14.10;93.40
69533;DHT22;56729;52.036;5.332;2022-08-21T01:25:35;14.20;93.50
69533;DHT22;56729;52.036;5.332;2022-08-21T01:26:37;14.20;93.60
69533;DHT22;56729;52.036;5.332;2022-08-21T01:27:39;14.20;93.60
69533;DHT22;56729;52.036;5.332;2022-08-21T01:28:48;14.20;93.60
69533;DHT22;56729;52.036;5.332;2022-08-21T01:29:55;14.20;93.60
69533;DHT22;56729;52.036;5.332;2022-08-21T01:30:58;14.20;93.50
69533;DHT22;56729;52.036;5.332;2022-08-21T01:32:05;14.20;93.40
69533;DHT22;56729;52.036;5.332;2022-08-21T01:33:07;14.30;93.40
69533;DHT22;56729;52.036;5.332;2022-08-21T01:34:10;14.30;93.30
69533;DHT22;56729;52.036;5.332;2022-08-21T01:35:13;14.30;93.30
69533;DHT22;56729;52.036;5.332;2022-08-21T01:36:16;14.30;93.20
69533;DHT22;56729;52.036;5.332;2022-08-21T01:37:20;14.30;93.20
69533;DHT22;56729;52.036;5.332;2022-08-21T01:38:23;14.30;93.20
69533;DHT22;56729;52.036;5.332;2022-08-21T01:39:28;14.30;93.20
69533;DHT22;56729;52.036;5.332;2022-08-21T01:40:30;14.20;93.10
69533;DHT22;56729;52.036;5.332;2022-08-21T01:41:32;14.30;93.20
69533;DHT22;56729;52.036;5.332;2022-08-21T01:42:34;14.20;93.20
69533;DHT22;56729;52.036;5.332;2022-08-21T01:43:36;14.20;93.30
69533;DHT22;56729;52.036;5.332;2022-08-21T01:44:41;14.20;93.20
69533;DHT22;56729;52.036;5.332;2022-08-21T01:45:43;14.20;93.30
69533;DHT22;56729;52.036;5.332;2022-08-21T01:46:45;14.20;93.30
69533;DHT22;56729;52.036;5.332;2022-08-21T01:47:47;14.20;93.30
69533;DHT22;56729;52.036;5.332;2022-08-21T01:48:49;14.20;93.30
69533;DHT22;56729;52.036;5.332;2022-08-21T01:49:51;14.20;93.30
69533;DHT22;56729;52.036;5.332;2022-08-21T01:50:53;14.20;93.30
69533;DHT22;56729;52.036;5.332;2022-08-21T01:51:57;14.20;93.20
69533;DHT22;56729;52.036;5.332;2022-08-21T01:52:59;14.20;93.30
69533;DHT22;56729;52.036;5.332;2022-08-21T01:54:01;14.20;93.30
69533;DHT22;56729;52.036;5.332;2022-08-21T01:55:04;14.20;93.20
69533;DHT22;56729;52.036;5.332;2022-08-21T01:56:10;14.20;93.20
69533;DHT22;56729;52.036;5.332;2022-08-21T01:57:13;14.20;93.30
69533;DHT22;56729;52.036;5.332;2022-08-21T01:58:16;14.10;93.20
69533;DHT22;56729;52.036;5.332;2022-08-21T01:59:19;14.10;93.20
69533;DHT22;56729;52.036;5.332;2022-08-21T02:00:21;14.10;93.30
69533;DHT22;56729;52.036;5.332;2022-08-21T02:01:26;14.10;93.30
69533;DHT22;56729;52.036;5.332;2022-08-21T02:02:28;14.10;93.20
69533;DHT22;56729;52.036;5.332;2022-08-21T02:03:30;14.10;93.20
69533;DHT22;56729;52.036;5.332;2022-08-21T02:04:36;14.10;93.20
69533;DHT22;56729;52.036;5.332;2022-08-21T02:05:38;14.10;93.30
69533;DHT22;56729;52.036;5.332;2022-08-21T02:06:40;14.00;93.30
69533;DHT22;56729;52.036;5.332;2022-08-21T02:07:49;14.00;93.30
69533;DHT22;56729;52.036;5.332;2022-08-21T02:08:51;14.00;93.30
69533;DHT22;56729;52.036;5.332;2022-08-21T02:09:53;14.00;93.40
69533;DHT22;56729;52.036;5.332;2022-08-21T02:10:56;14.00;93.40
69533;DHT22;56729;52.036;5.332;2022-08-21T02:11:58;14.00;93.40
69533;DHT22;56729;52.036;5.332;2022-08-21T02:13:01;14.00;93.40
69533;DHT22;56729;52.036;5.332;2022-08-21T02:14:03;14.00;93.40
69533;DHT22;56729;52.036;5.332;2022-08-21T02:15:06;14.00;93.50
69533;DHT22;56729;52.036;5.332;2022-08-21T02:16:12;14.00;93.50
69533;DHT22;56729;52.036;5.332;2022-08-21T02:17:20;13.90;93.50
69533;DHT22;56729;52.036;5.332;2022-08-21T02:18:22;13.90;93.50
69533;DHT22;56729;52.036;5.332;2022-08-21T02:19:23;13.90;93.50
69533;DHT22;56729;52.036;5.332;2022-08-21T02:20:33;13.90;93.50
69533;DHT22;56729;52.036;5.332;2022-08-21T02:21:36;13.90;93.60
69533;DHT22;56729;52.036;5.332;2022-08-21T02:22:38;13.90;93.60
69533;DHT22;56729;52.036;5.332;2022-08-21T02:23:39;13.90;93.60
69533;DHT22;56729;52.036;5.332;2022-08-21T02:24:42;13.90;93.60
69533;DHT22;56729;52.036;5.332;2022-08-21T02:26:00;13.90;93.60
69533;DHT22;56729;52.036;5.332;2022-08-21T02:27:02;13.90;93.60
69533;DHT22;56729;52.036;5.332;2022-08-21T02:28:07;13.90;93.60
69533;DHT22;56729;52.036;5.332;2022-08-21T02:29:10;13.90;93.70
69533;DHT22;56729;52.036;5.332;2022-08-21T02:30:15;13.90;93.60
69533;DHT22;56729;52.036;5.332;2022-08-21T02:31:18;13.90;93.60
69533;DHT22;56729;52.036;5.332;2022-08-21T02:32:20;13.90;93.70
69533;DHT22;56729;52.036;5.332;2022-08-21T02:33:23;13.90;93.70
69533;DHT22;56729;52.036;5.332;2022-08-21T02:34:25;13.90;93.70
69533;DHT22;56729;52.036;5.332;2022-08-21T02:35:30;13.80;93.70
69533;DHT22;56729;52.036;5.332;2022-08-21T02:36:32;13.90;93.70
69533;DHT22;56729;52.036;5.332;2022-08-21T02:37:41;13.80;93.70
69533;DHT22;56729;52.036;5.332;2022-08-21T02:38:44;13.80;94.20
69533;DHT22;56729;52.036;5.332;2022-08-21T02:39:46;13.80;93.70
69533;DHT22;56729;52.036;5.332;2022-08-21T02:40:50;13.80;93.70
69533;DHT22;56729;52.036;5.332;2022-08-21T02:41:52;13.80;93.80
69533;DHT22;56729;52.036;5.332;2022-08-21T02:42:54;13.80;93.80
69533;DHT22;56729;52.036;5.332;2022-08-21T02:43:56;13.80;93.80
69533;DHT22;56729;52.036;5.332;2022-08-21T02:44:58;13.80;93.80
69533;DHT22;56729;52.036;5.332;2022-08-21T02:46:01;13.80;93.80
69533;DHT22;56729;52.036;5.332;2022-08-21T02:47:04;13.80;93.80
69533;DHT22;56729;52.036;5.332;2022-08-21T02:48:11;13.80;93.70
69533;DHT22;56729;52.036;5.332;2022-08-21T02:49:13;13.80;93.80
69533;DHT22;56729;52.036;5.332;2022-08-21T02:50:19;13.80;93.70
69533;DHT22;56729;52.036;5.332;2022-08-21T02:51:21;13.80;93.80
69533;DHT22;56729;52.036;5.332;2022-08-21T02:52:24;13.80;93.80
69533;DHT22;56729;52.036;5.332;2022-08-21T02:53:27;13.80;93.80
69533;DHT22;56729;52.036;5.332;2022-08-21T02:54:29;13.80;93.90
69533;DHT22;56729;52.036;5.332;2022-08-21T02:55:32;13.80;93.80
69533;DHT22;56729;52.036;5.332;2022-08-21T02:56:34;13.80;93.90
69533;DHT22;56729;52.036;5.332;2022-08-21T02:57:37;13.80;93.80
69533;DHT22;56729;52.036;5.332;2022-08-21T02:58:42;13.80;93.90
69533;DHT22;56729;52.036;5.332;2022-08-21T02:59:44;13.80;93.90
69533;DHT22;56729;52.036;5.332;2022-08-21T03:00:47;13.80;93.90
69533;DHT22;56729;52.036;5.332;2022-08-21T03:01:48;13.80;93.90
69533;DHT22;56729;52.036;5.332;2022-08-21T03:02:51;13.80;93.90
69533;DHT22;56729;52.036;5.332;2022-08-21T03:03:52;13.80;93.80
69533;DHT22;56729;52.036;5.332;2022-08-21T03:04:55;13.80;93.80
69533;DHT22;56729;52.036;5.332;2022-08-21T03:05:57;13.80;93.90
69533;DHT22;56729;52.036;5.332;2022-08-21T03:06:59;13.80;94.20
69533;DHT22;56729;52.036;5.332;2022-08-21T03:08:04;13.80;93.90
69533;DHT22;56729;52.036;5.332;2022-08-21T03:09:06;13.80;93.90
69533;DHT22;56729;52.036;5.332;2022-08-21T03:10:09;13.80;93.90
69533;DHT22;56729;52.036;5.332;2022-08-21T03:11:13;13.80;93.90
69533;DHT22;56729;52.036;5.332;2022-08-21T03:12:16;13.70;93.90
69533;DHT22;56729;52.036;5.332;2022-08-21T03:13:19;13.80;94.00
69533;DHT22;56729;52.036;5.332;2022-08-21T03:14:22;13.70;93.90
69533;DHT22;56729;52.036;5.332;2022-08-21T03:15:24;13.80;93.90
69533;DHT22;56729;52.036;5.332;2022-08-21T03:16:26;13.70;93.80
69533;DHT22;56729;52.036;5.332;2022-08-21T03:17:34;13.70;93.90
69533;DHT22;56729;52.036;5.332;2022-08-21T03:18:36;13.70;93.80
69533;DHT22;56729;52.036;5.332;2022-08-21T03:19:38;13.70;93.90
69533;DHT22;56729;52.036;5.332;2022-08-21T03:20:42;13.70;94.00
69533;DHT22;56729;52.036;5.332;2022-08-21T03:21:44;13.60;94.00
69533;DHT22;56729;52.036;5.332;2022-08-21T03:22:46;13.60;94.00
69533;DHT22;56729;52.036;5.332;2022-08-21T03:23:53;13.60;94.00
69533;DHT22;56729;52.036;5.332;2022-08-21T03:24:55;13.60;94.00
69533;DHT22;56729;52.036;5.332;2022-08-21T03:25:58;13.60;94.10
69533;DHT22;56729;52.036;5.332;2022-08-21T03:27:00;13.60;94.00
69533;DHT22;56729;52.036;5.332;2022-08-21T03:28:05;13.60;94.00
69533;DHT22;56729;52.036;5.332;2022-08-21T03:29:08;13.60;94.00
69533;DHT22;56729;52.036;5.332;2022-08-21T03:30:11;13.60;94.00
69533;DHT22;56729;52.036;5.332;2022-08-21T03:31:13;13.60;94.10
69533;DHT22;56729;52.036;5.332;2022-08-21T03:32:15;13.60;94.10
69533;DHT22;56729;52.036;5.332;2022-08-21T03:33:18;13.50;94.10
69533;DHT22;56729;52.036;5.332;2022-08-21T03:34:23;13.50;94.20
69533;DHT22;56729;52.036;5.332;2022-08-21T03:35:26;13.60;94.20
69533;DHT22;56729;52.036;5.332;2022-08-21T03:36:29;13.60;94.20
69533;DHT22;56729;52.036;5.332;2022-08-21T03:37:31;13.60;94.10
69533;DHT22;56729;52.036;5.332;2022-08-21T03:38:34;13.60;94.10
69533;DHT22;56729;52.036;5.332;2022-08-21T03:39:37;13.60;94.20
69533;DHT22;56729;52.036;5.332;2022-08-21T03:40:40;13.60;94.20
69533;DHT22;56729;52.036;5.332;2022-08-21T03:41:42;13.60;94.10
69533;DHT22;56729;52.036;5.332;2022-08-21T03:42:44;13.60;94.10
69533;DHT22;56729;52.036;5.332;2022-08-21T03:43:49;13.60;94.10
69533;DHT22;56729;52.036;5.332;2022-08-21T03:44:51;13.60;94.00
69533;DHT22;56729;52.036;5.332;2022-08-21T03:45:53;13.60;94.00
69533;DHT22;56729;52.036;5.332;2022-08-21T03:46:56;13.60;94.00
69533;DHT22;56729;52.036;5.332;2022-08-21T03:48:01;13.60;94.00
69533;DHT22;56729;52.036;5.332;2022-08-21T03:49:03;13.50;94.00
69533;DHT22;56729;52.036;5.332;2022-08-21T03:50:06;13.60;94.00
69533;DHT22;56729;52.036;5.332;2022-08-21T03:51:09;13.50;94.00
69533;DHT22;56729;52.036;5.332;2022-08-21T03:52:11;13.50;94.10
69533;DHT22;56729;52.036;5.332;2022-08-21T03:53:14;13.50;94.10
69533;DHT22;56729;52.036;5.332;2022-08-21T03:54:18;13.60;94.10
69533;DHT22;56729;52.036;5.332;2022-08-21T03:55:20;13.50;94.10
69533;DHT22;56729;52.036;5.332;2022-08-21T03:56:22;13.50;94.10
69533;DHT22;56729;52.036;5.332;2022-08-21T03:57:24;13.60;94.10
69533;DHT22;56729;52.036;5.332;2022-08-21T03:58:27;13.50;94.10
69533;DHT22;56729;52.036;5.332;2022-08-21T03:59:29;13.60;94.10
69533;DHT22;56729;52.036;5.332;2022-08-21T04:00:31;13.60;94.00
69533;DHT22;56729;52.036;5.332;2022-08-21T04:01:34;13.60;94.00
69533;DHT22;56729;52.036;5.332;2022-08-21T04:02:37;13.60;93.90
69533;DHT22;56729;52.036;5.332;2022-08-21T04:03:39;13.50;93.90
69533;DHT22;56729;52.036;5.332;2022-08-21T04:04:41;13.60;93.90
69533;DHT22;56729;52.036;5.332;2022-08-21T04:05:44;13.60;93.90
69533;DHT22;56729;52.036;5.332;2022-08-21T04:06:47;13.50;93.90
69533;DHT22;56729;52.036;5.332;2022-08-21T04:07:49;13.50;93.90
69533;DHT22;56729;52.036;5.332;2022-08-21T04:08:52;13.50;93.90
69533;DHT22;56729;52.036;5.332;2022-08-21T04:09:53;13.50;93.90
69533;DHT22;56729;52.036;5.332;2022-08-21T04:10:57;13.50;94.00
69533;DHT22;56729;52.036;5.332;2022-08-21T04:12:00;13.50;94.00
69533;DHT22;56729;52.036;5.332;2022-08-21T04:13:03;13.50;94.00
69533;DHT22;56729;52.036;5.332;2022-08-21T04:14:06;13.50;94.00
69533;DHT22;56729;52.036;5.332;2022-08-21T04:15:08;13.40;93.90
69533;DHT22;56729;52.036;5.332;2022-08-21T04:16:10;13.40;94.00
69533;DHT22;56729;52.036;5.332;2022-08-21T04:17:11;13.40;94.00
69533;DHT22;56729;52.036;5.332;2022-08-21T04:18:13;13.40;94.00
69533;DHT22;56729;52.036;5.332;2022-08-21T04:19:15;13.40;94.00
69533;DHT22;56729;52.036;5.332;2022-08-21T04:20:18;13.40;94.10
69533;DHT22;56729;52.036;5.332;2022-08-21T04:21:21;13.40;94.10
69533;DHT22;56729;52.036;5.332;2022-08-21T04:22:24;13.30;94.10
69533;DHT22;56729;52.036;5.332;2022-08-21T04:23:26;13.30;94.10
69533;DHT22;56729;52.036;5.332;2022-08-21T04:24:28;13.30;94.10
69533;DHT22;56729;52.036;5.332;2022-08-21T04:25:30;13.30;94.60
69533;DHT22;56729;52.036;5.332;2022-08-21T04:26:37;13.30;94.10
69533;DHT22;56729;52.036;5.332;2022-08-21T04:27:39;13.30;94.20
69533;DHT22;56729;52.036;5.332;2022-08-21T04:28:41;13.30;94.20
69533;DHT22;56729;52.036;5.332;2022-08-21T04:29:45;13.30;94.30
69533;DHT22;56729;52.036;5.332;2022-08-21T04:30:47;13.30;94.30
69533;DHT22;56729;52.036;5.332;2022-08-21T04:31:49;13.30;94.30
69533;DHT22;56729;52.036;5.332;2022-08-21T04:32:51;13.30;94.20
69533;DHT22;56729;52.036;5.332;2022-08-21T04:33:53;13.30;94.30
69533;DHT22;56729;52.036;5.332;2022-08-21T04:35:00;13.30;94.30
69533;DHT22;56729;52.036;5.332;2022-08-21T04:36:03;13.30;94.30
69533;DHT22;56729;52.036;5.332;2022-08-21T04:37:05;13.30;94.30
69533;DHT22;56729;52.036;5.332;2022-08-21T04:38:07;13.30;94.80
69533;DHT22;56729;52.036;5.332;2022-08-21T04:39:09;13.30;94.40
69533;DHT22;56729;52.036;5.332;2022-08-21T04:40:12;13.30;94.40
69533;DHT22;56729;52.036;5.332;2022-08-21T04:41:15;13.30;94.40
69533;DHT22;56729;52.036;5.332;2022-08-21T04:42:26;13.30;94.40
69533;DHT22;56729;52.036;5.332;2022-08-21T04:43:29;13.30;94.40
69533;DHT22;56729;52.036;5.332;2022-08-21T04:44:31;13.30;94.40
69533;DHT22;56729;52.036;5.332;2022-08-21T04:45:39;13.30;94.40
69533;DHT22;56729;52.036;5.332;2022-08-21T04:46:41;13.40;94.50
69533;DHT22;56729;52.036;5.332;2022-08-21T04:47:44;13.40;94.60
69533;DHT22;56729;52.036;5.332;2022-08-21T04:48:54;13.40;94.60
69533;DHT22;56729;52.036;5.332;2022-08-21T04:49:56;13.40;94.50
69533;DHT22;56729;52.036;5.332;2022-08-21T04:51:02;13.40;94.40
69533;DHT22;56729;52.036;5.332;2022-08-21T04:52:05;13.40;94.40
69533;DHT22;56729;52.036;5.332;2022-08-21T04:53:13;13.40;94.40
69533;DHT22;56729;52.036;5.332;2022-08-21T04:54:20;13.40;94.40
69533;DHT22;56729;52.036;5.332;2022-08-21T04:55:24;13.30;94.30
69533;DHT22;56729;52.036;5.332;2022-08-21T04:56:43;13.40;94.40
69533;DHT22;56729;52.036;5.332;2022-08-21T04:57:47;13.40;94.50
69533;DHT22;56729;52.036;5.332;2022-08-21T04:58:51;13.30;94.50
69533;DHT22;56729;52.036;5.332;2022-08-21T04:59:53;13.40;94.60
69533;DHT22;56729;52.036;5.332;2022-08-21T05:00:57;13.30;94.50
69533;DHT22;56729;52.036;5.332;2022-08-21T05:02:00;13.30;94.60
69533;DHT22;56729;52.036;5.332;2022-08-21T05:03:05;13.40;94.60
69533;DHT22;56729;52.036;5.332;2022-08-21T05:04:10;13.40;94.60
69533;DHT22;56729;52.036;5.332;2022-08-21T05:05:13;13.40;94.60
69533;DHT22;56729;52.036;5.332;2022-08-21T05:06:16;13.40;94.60
69533;DHT22;56729;52.036;5.332;2022-08-21T05:07:21;13.40;94.50
69533;DHT22;56729;52.036;5.332;2022-08-21T05:08:45;13.40;94.50
69533;DHT22;56729;52.036;5.332;2022-08-21T05:09:48;13.40;94.50
69533;DHT22;56729;52.036;5.332;2022-08-21T05:10:50;13.40;94.40
69533;DHT22;56729;52.036;5.332;2022-08-21T05:11:57;13.50;94.40
69533;DHT22;56729;52.036;5.332;2022-08-21T05:13:00;13.50;94.40
69533;DHT22;56729;52.036;5.332;2022-08-21T05:14:03;13.50;94.40
69533;DHT22;56729;52.036;5.332;2022-08-21T05:15:05;13.50;94.40
69533;DHT22;56729;52.036;5.332;2022-08-21T05:16:12;13.50;94.50
69533;DHT22;56729;52.036;5.332;2022-08-21T05:17:34;13.50;94.40
69533;DHT22;56729;52.036;5.332;2022-08-21T05:18:37;13.50;94.40
69533;DHT22;56729;52.036;5.332;2022-08-21T05:19:39;13.50;94.40
69533;DHT22;56729;52.036;5.332;2022-08-21T05:20:41;13.50;94.40
69533;DHT22;56729;52.036;5.332;2022-08-21T05:21:45;13.60;94.40
69533;DHT22;56729;52.036;5.332;2022-08-21T05:22:47;13.60;94.40
69533;DHT22;56729;52.036;5.332;2022-08-21T05:23:49;13.60;94.40
69533;DHT22;56729;52.036;5.332;2022-08-21T05:24:51;13.60;94.40
69533;DHT22;56729;52.036;5.332;2022-08-21T05:25:53;13.60;94.40
69533;DHT22;56729;52.036;5.332;2022-08-21T05:26:57;13.60;94.40
69533;DHT22;56729;52.036;5.332;2022-08-21T05:27:59;13.60;94.30
69533;DHT22;56729;52.036;5.332;2022-08-21T05:29:02;13.60;94.30
69533;DHT22;56729;52.036;5.332;2022-08-21T05:30:06;13.60;94.40
69533;DHT22;56729;52.036;5.332;2022-08-21T05:31:09;13.60;94.40
69533;DHT22;56729;52.036;5.332;2022-08-21T05:32:12;13.60;94.50
69533;DHT22;56729;52.036;5.332;2022-08-21T05:33:14;13.60;94.50
69533;DHT22;56729;52.036;5.332;2022-08-21T05:34:22;13.60;94.50
69533;DHT22;56729;52.036;5.332;2022-08-21T05:35:24;13.70;94.60
69533;DHT22;56729;52.036;5.332;2022-08-21T05:36:26;13.70;94.60
69533;DHT22;56729;52.036;5.332;2022-08-21T05:37:28;13.70;94.60
69533;DHT22;56729;52.036;5.332;2022-08-21T05:38:29;13.70;94.50
69533;DHT22;56729;52.036;5.332;2022-08-21T05:39:32;13.70;94.50
69533;DHT22;56729;52.036;5.332;2022-08-21T05:40:54;13.70;94.50
69533;DHT22;56729;52.036;5.332;2022-08-21T05:41:56;13.70;94.50
69533;DHT22;56729;52.036;5.332;2022-08-21T05:42:58;13.70;94.60
69533;DHT22;56729;52.036;5.332;2022-08-21T05:44:01;13.70;94.60
69533;DHT22;56729;52.036;5.332;2022-08-21T05:45:11;13.70;94.70
69533;DHT22;56729;52.036;5.332;2022-08-21T05:46:13;13.70;94.80
69533;DHT22;56729;52.036;5.332;2022-08-21T05:47:14;13.70;94.80
69533;DHT22;56729;52.036;5.332;2022-08-21T05:48:22;13.80;94.80
69533;DHT22;56729;52.036;5.332;2022-08-21T05:49:25;13.80;95.30
69533;DHT22;56729;52.036;5.332;2022-08-21T05:50:26;13.80;94.80
69533;DHT22;56729;52.036;5.332;2022-08-21T05:51:34;13.80;94.90
69533;DHT22;56729;52.036;5.332;2022-08-21T05:52:36;13.80;94.90
69533;DHT22;56729;52.036;5.332;2022-08-21T05:53:39;13.80;94.90
69533;DHT22;56729;52.036;5.332;2022-08-21T05:54:41;13.90;95.00
69533;DHT22;56729;52.036;5.332;2022-08-21T05:55:44;13.80;95.00
69533;DHT22;56729;52.036;5.332;2022-08-21T05:56:47;13.90;95.10
69533;DHT22;56729;52.036;5.332;2022-08-21T05:57:49;13.80;95.00
69533;DHT22;56729;52.036;5.332;2022-08-21T05:58:51;13.80;95.10
69533;DHT22;56729;52.036;5.332;2022-08-21T05:59:53;13.90;95.20
69533;DHT22;56729;52.036;5.332;2022-08-21T06:00:56;13.90;95.20
69533;DHT22;56729;52.036;5.332;2022-08-21T06:01:59;13.90;95.30
69533;DHT22;56729;52.036;5.332;2022-08-21T06:03:11;13.90;95.30
69533;DHT22;56729;52.036;5.332;2022-08-21T06:04:13;13.90;95.40
69533;DHT22;56729;52.036;5.332;2022-08-21T06:05:16;13.90;95.50
69533;DHT22;56729;52.036;5.332;2022-08-21T06:06:37;14.00;95.50
69533;DHT22;56729;52.036;5.332;2022-08-21T06:07:39;14.00;95.50
69533;DHT22;56729;52.036;5.332;2022-08-21T06:08:41;14.00;95.60
69533;DHT22;56729;52.036;5.332;2022-08-21T06:09:43;14.00;95.60
69533;DHT22;56729;52.036;5.332;2022-08-21T06:10:47;14.00;95.70
69533;DHT22;56729;52.036;5.332;2022-08-21T06:11:49;14.10;95.70
69533;DHT22;56729;52.036;5.332;2022-08-21T06:12:54;14.10;95.70
69533;DHT22;56729;52.036;5.332;2022-08-21T06:13:57;14.20;95.80
69533;DHT22;56729;52.036;5.332;2022-08-21T06:14:59;14.20;95.80
69533;DHT22;56729;52.036;5.332;2022-08-21T06:16:11;14.20;95.80
69533;DHT22;56729;52.036;5.332;2022-08-21T06:17:16;14.30;95.90
69533;DHT22;56729;52.036;5.332;2022-08-21T06:18:18;14.30;95.90
69533;DHT22;56729;52.036;5.332;2022-08-21T06:19:20;14.30;95.80
69533;DHT22;56729;52.036;5.332;2022-08-21T06:20:22;14.30;95.90
69533;DHT22;56729;52.036;5.332;2022-08-21T06:21:24;14.30;95.90
69533;DHT22;56729;52.036;5.332;2022-08-21T06:22:26;14.40;95.90
69533;DHT22;56729;52.036;5.332;2022-08-21T06:23:28;14.40;95.80
69533;DHT22;56729;52.036;5.332;2022-08-21T06:24:34;14.40;95.90
69533;DHT22;56729;52.036;5.332;2022-08-21T06:25:37;14.40;96.30
69533;DHT22;56729;52.036;5.332;2022-08-21T06:26:39;14.40;95.90
69533;DHT22;56729;52.036;5.332;2022-08-21T06:27:41;14.50;96.00
69533;DHT22;56729;52.036;5.332;2022-08-21T06:28:43;14.50;96.10
69533;DHT22;56729;52.036;5.332;2022-08-21T06:29:45;14.60;96.10
69533;DHT22;56729;52.036;5.332;2022-08-21T06:30:47;14.60;96.10
69533;DHT22;56729;52.036;5.332;2022-08-21T06:31:51;14.60;96.10
69533;DHT22;56729;52.036;5.332;2022-08-21T06:32:53;14.60;96.20
69533;DHT22;56729;52.036;5.332;2022-08-21T06:33:55;14.70;96.20
69533;DHT22;56729;52.036;5.332;2022-08-21T06:34:58;14.70;96.20
69533;DHT22;56729;52.036;5.332;2022-08-21T06:35:59;14.70;96.20
69533;DHT22;56729;52.036;5.332;2022-08-21T06:37:01;14.70;96.30
69533;DHT22;56729;52.036;5.332;2022-08-21T06:38:03;14.80;96.30
69533;DHT22;56729;52.036;5.332;2022-08-21T06:39:05;14.80;96.30
69533;DHT22;56729;52.036;5.332;2022-08-21T06:40:27;14.90;96.30
69533;DHT22;56729;52.036;5.332;2022-08-21T06:41:31;14.90;96.50
69533;DHT22;56729;52.036;5.332;2022-08-21T06:42:40;15.00;96.50